Nearby METAR Reports

 

KSJC - San Jose, California, USA
Distance from station: NØ 14km
Oppdatert: 26/01/2020 10:50
unable to load KSJC data RC=
unable to load KSJC data RC=
 
KNUQ - Moffett Nas/Mtn, California, USA
Distance from station: N 14km
Oppdatert: 21/11/2019 17:56
NOT Current

 
Barometer: 1011.2 hPa
2019/11/21 16:56 KNUQ 211656Z AUTO A2986 RMK AO2 SLP116 PWINO $
 
KPAO - Palo Alto, California, USA
Distance from station: NNV 23km
Oppdatert: 26/01/2020 05:47
NOT Current
Overskyet
Overskyet
 Vind fra calm
Vind: Stille
Temperatur: 14°C
Duggpunkt: 12°C
Fuktighet: 88%
Barometer: 1020 hPa
Clouds: Overskyet
Visibility: 16 km
Cloud details: Delvis skyet 762 m
Overskyet 1067 m
2020/01/26 04:47 KPAO 260447Z 00000KT 10SM SCT025 OVC035 14/12 A3012 RMK LAST
KRHV - San Jose/Reid, California, USA
Distance from station: ØNØ 19km
Oppdatert: 26/01/2020 06:55
NOT Current
Hovedsaklig skyet
Hovedsaklig skyet
 Vind fra SSV
Vind: SSV 6 km/h
Temperatur: 16°C
Duggpunkt: 13°C
Fuktighet: 83%
Barometer: 1020.3 hPa
Clouds: Hovedsaklig skyet
Visibility: 16 km
Cloud details: Hovedsaklig skyet 1067 m
Hovedsaklig skyet 4572 m
2020/01/26 05:55 KRHV 260555Z 21003KT 10SM BKN035 BKN150 16/13 A3013 RMK LAST
 
KOAK - Oakland, California, USA
Distance from station: NNV 50km
Oppdatert: 26/01/2020 10:27
Hovedsaklig skyet
Hovedsaklig skyet
 Vind fra S
Vind: S 6 km/h
Temperatur: 15°C
Duggpunkt: 14°C
Fuktighet: 94%
Barometer: 1020 hPa
Clouds: Hovedsaklig skyet
Visibility: 14 km
Cloud details: Few Clouds 213 m
Delvis skyet 579 m
Hovedsaklig skyet 2591 m
2020/01/26 09:27 KOAK 260927Z 18003KT 9SM FEW007 SCT019 BKN085 15/14 A3012 RMK AO2 T01500139 $
KSQL - San Carlos Airpo, California, USA
Distance from station: NV 34km
Oppdatert: 26/01/2020 10:40
Hovedsaklig skyet
Hovedsaklig skyet
 Vind fra calm
Vind: Stille
Temperatur: 13°C
Duggpunkt: 13°C
Fuktighet: 100%
Barometer: 1020.3 hPa
Clouds: Hovedsaklig skyet
Visibility: 16 km
Cloud details: Few Clouds 1829 m
Hovedsaklig skyet 2438 m
2020/01/26 09:40 KSQL 260940Z AUTO 00000KT 10SM FEW060 BKN080 13/13 A3013 RMK AO2
 
KSFO - San Francisco, California, USA
Distance from station: NV 49km
Oppdatert: 26/01/2020 09:56
Hovedsaklig skyet
Hovedsaklig skyet
 Vind fra SSØ
Vind: SSØ 11 km/h
Temperatur: 14°C
Duggpunkt: 12°C
Fuktighet: 88%
Barometer: 1019.6 hPa
Clouds: Hovedsaklig skyet
Visibility: 16 km
Cloud details: Few Clouds 457 m
Hovedsaklig skyet 2591 m
2020/01/26 08:56 KSFO 260856Z 16006KT 10SM FEW015 BKN085 14/12 A3011 RMK AO2 SLP196 60000 T01440122 58006
KE16 - San Martin, California, USA
Distance from station: ØSØ 43km
Oppdatert: 14/11/2019 10:35
NOT Current
Overskyet
Overskyet
 Vind fra SØ
Vind: SØ 11 km/h
Temperatur: 12°C
Duggpunkt: 10°C
Fuktighet: 88%
Barometer: 1017.6 hPa
Clouds: Overskyet
Visibility: 16 km
Cloud details: Overskyet 427 m
2019/11/14 09:35 KE16 140935Z AUTO 13006KT 10SM OVC014 12/10 A3005 RMK AO2
 
KWVI - Watsonville, California, USA
Distance from station: SSØ 44km
Oppdatert: 26/01/2020 10:28
Mist, Overskyet
Mist, Overskyet
 Vind fra calm
Vind: Stille
Temperatur: 13°C
Duggpunkt: 13°C
Fuktighet: 100%
Barometer: 1020.7 hPa
Oversikt: Mist
Clouds: Overskyet
Visibility: 2.8 km
Cloud details: Overskyet 61 m
2020/01/26 09:28 KWVI 260928Z AUTO 00000KT 1 3/4SM BR OVC002 13/13 A3014 RMK AO2 RAE01 P0000 T01330128
KHAF - Half Moon Bay, California, USA
Distance from station: VNV 50km
Oppdatert: 26/01/2020 10:40
Tåke, Overskyet
Tåke, Overskyet
 Vind fra SV
Vind: SV 9 km/h
Temperatur: 13°C
Duggpunkt: 12°C
Fuktighet: 94%
Barometer: 1020.7 hPa
Oversikt: Tåke
Clouds: Overskyet
Visibility: 0.4 km
Cloud details: Overskyet 61 m
2020/01/26 09:40 KHAF 260940Z AUTO 23005KT 1/4SM FG OVC002 13/12 A3014 RMK AO2
 
KHWD - Hayward, California, USA
Distance from station: N 44km
Oppdatert: 26/01/2020 10:10
Hovedsaklig skyet
Hovedsaklig skyet
 Vind fra SØ
Vind: SØ 7 km/h
Temperatur: 14°C
Duggpunkt: 13°C
Fuktighet: 94%
Barometer: 1019.6 hPa
Clouds: Hovedsaklig skyet
Visibility: 16 km
Cloud details: Few Clouds 640 m
Hovedsaklig skyet 2591 m
2020/01/26 09:10 KHWD 260910Z AUTO 14004KT 10SM FEW021 BKN085 14/13 A3011 RMK AO2 T01390128
KLVK - Livermore, California, USA
Distance from station: NNØ 51km
Oppdatert: 26/01/2020 09:53
Lett regn, Mist, Overskyet
Lett regn, Mist, Overskyet
 Vind fra calm
Vind: Stille
Temperatur: 13°C
Duggpunkt: 13°C
Fuktighet: 100%
Barometer: 1020 hPa
Oversikt: Lett regn, Mist
Clouds: Overskyet
Visibility: 8 km
Cloud details: Few Clouds 579 m
Delvis skyet 975 m
Overskyet 1341 m
2020/01/26 08:53 KLVK 260853Z AUTO 00000KT 5SM -RA BR FEW019 SCT032 OVC044 13/13 A3012 RMK AO2 RAE14B32 SLP198 P0001 60002 T01330128 58003